Aeroporto :
LOGIN :

Iscrizione | Disclaimer

   EN    FR    IT 

 










Sommario :    VFR   VFR Marginale   IFR   IFR Intensivo   IFR Molto Intensivo
Visibilità : 
Base nubi : 
>= 8 km
>= 3000ft
5 / 8 km
1000 / 3000 ft
1500m / 5 km
500 / 1000 ft
800 / 1500m
200 / 500 ft
< 800m
< 200 ft
Simboli :   Temporali  Nebbia  Neve Forte  Precipitazioni Forti  Vento > 20 kt
SIGMETs :   Varie  Temporali  Ghiacco  Turbolenza  Onda orograficha  Ceneri Vulcaniche







- Altitudine del aeroporto : 226 ft
- Codice IATA : BEX


EGUB - RAF Benson

ULTIMO METAR :
  • 200750Z 35005KT 9999 FEW015 SCT140 14/11 Q1013 BLU NOSIG

METARs OBSOLETI :
  • 200650Z 34002KT 9999 FEW010 SCT140 10/09 Q1012 BLU NOSIG
  • 200550Z 32002KT 9999 FEW010 SCT140 10/09 Q1012 BLU NOSIG

TAF TAF EGUB
Valido dal 20 a 06 ore il 21 a 00 ore UTC


200557Z 2006/2024 32005KT 9999 SCT025
ATIS : +44 1491-837766 (x7524)
Nessun NOTAM noto per questo aeroporto.
1 SIGMET conosciuto per la FIR London (EGTT) :
 
Temporali affogati
EGTT SIGMET 01 VALID 200445/200845 EGRR
EGTT LONDON FIR EMBD TS FCST WI N5451 E00452 - N5348 E00359 - N5348 E00259 - N5500 E00227 - N5500 E00451 - N5451 E00452 TOP FL280 MOV NNW 15KT NC=



MetMap, La meteo Aeronautica in un colpo d'occhio ! - Copyright ORBIFLY Dicembre 2007 - Disclaimer

ORBIFLY MET'MAP TEAM :

Programmazione e sviluppo : Alexandra Zaïnal
Concezione e sviluppo : Baudouin d'Aumeries
Co-Programmazione e sviluppo : Marc-Olivier Méhu
Supporto tecnico e logistico : Manuel Goepfert
Aiuto per la traduzione : Arnaldo La Scala

Contatto : metmap@orbifly.com




FONTI E CREDITI :

   NOAA